createdAt,value
2022-10-22T00:01:05.620Z,7.24
2022-10-22T00:03:40.108Z,7.23
2022-10-22T00:06:22.577Z,7.22
2022-10-22T00:08:52.084Z,7.22
2022-10-22T00:11:21.275Z,7.23
2022-10-22T00:13:50.573Z,7.24
2022-10-22T00:16:33.169Z,7.25
2022-10-22T00:19:16.122Z,7.24
2022-10-22T00:21:45.112Z,7.24
2022-10-22T00:24:14.510Z,7.23
2022-10-22T00:26:43.250Z,7.22
2022-10-22T00:29:12.474Z,7.22
2022-10-22T00:31:41.358Z,7.21
2022-10-22T00:34:10.358Z,7.21
2022-10-22T00:36:53.840Z,7.20
2022-10-22T00:39:25.781Z,7.20
2022-10-22T00:42:12.914Z,7.20
2022-10-22T00:45:13.218Z,7.20
2022-10-22T00:48:05.459Z,7.20
2022-10-22T00:50:46.033Z,7.20
2022-10-22T00:53:21.688Z,7.18
2022-10-22T00:55:53.790Z,7.18
2022-10-22T00:58:28.486Z,7.18
2022-10-22T01:01:17.240Z,7.18
2022-10-22T01:04:00.511Z,7.18
2022-10-22T01:06:43.101Z,7.20
2022-10-22T01:09:34.072Z,7.19
2022-10-22T01:12:31.030Z,7.19
2022-10-22T01:15:25.544Z,7.19
2022-10-22T01:18:16.599Z,7.18
2022-10-22T01:21:27.032Z,7.18
2022-10-22T01:24:39.582Z,7.18
2022-10-22T01:27:32.890Z,7.19
2022-10-22T01:30:08.504Z,7.19
2022-10-22T01:32:51.896Z,7.18
2022-10-22T01:35:44.132Z,7.18
2022-10-22T01:38:18.910Z,7.17
2022-10-22T01:40:48.577Z,7.16
2022-10-22T01:43:17.765Z,7.16
2022-10-22T01:45:54.480Z,7.16
2022-10-22T01:48:45.970Z,7.17
2022-10-22T01:51:53.497Z,7.18
2022-10-22T01:54:45.497Z,7.17
2022-10-22T01:57:52.313Z,7.18
2022-10-22T02:00:22.328Z,7.17
2022-10-22T02:03:23.661Z,7.18
2022-10-22T02:05:59.590Z,7.19
2022-10-22T02:08:33.535Z,7.21
2022-10-22T02:11:04.372Z,7.22
2022-10-22T02:14:01.984Z,7.24
2022-10-22T02:16:39.874Z,7.26
2022-10-22T02:19:29.023Z,7.29
2022-10-22T02:22:12.276Z,7.32
2022-10-22T02:24:42.085Z,7.34
2022-10-22T02:27:34.057Z,7.35
2022-10-22T02:30:22.382Z,7.39
2022-10-22T02:32:51.042Z,7.39
2022-10-22T02:35:23.928Z,7.39
2022-10-22T02:38:08.105Z,7.40
2022-10-22T02:40:50.757Z,7.41
2022-10-22T02:43:20.101Z,7.43
2022-10-22T02:46:02.547Z,7.45
2022-10-22T02:48:31.911Z,7.47
2022-10-22T02:51:00.786Z,7.47
2022-10-22T02:53:43.333Z,7.48
2022-10-22T02:56:26.129Z,7.49
2022-10-22T02:59:08.559Z,7.49
2022-10-22T03:01:37.333Z,7.49
2022-10-22T03:04:19.860Z,7.50
2022-10-22T03:06:49.569Z,7.51
2022-10-22T03:09:32.486Z,7.51
2022-10-22T03:12:01.103Z,7.52
2022-10-22T03:14:43.629Z,7.53
2022-10-22T03:17:12.842Z,7.52
2022-10-22T03:19:42.470Z,7.52
2022-10-22T03:22:30.330Z,7.54
2022-10-22T03:25:03.369Z,7.55
2022-10-22T03:27:47.389Z,7.56
2022-10-22T03:30:16.495Z,7.57
2022-10-22T03:32:45.569Z,7.57
2022-10-22T03:35:15.050Z,7.58
2022-10-22T03:38:01.419Z,7.60
2022-10-22T03:40:46.692Z,7.61
2022-10-22T03:43:16.600Z,7.64
2022-10-22T03:45:45.625Z,7.65
2022-10-22T03:48:28.019Z,7.65
2022-10-22T03:51:11.165Z,7.64
2022-10-22T03:53:53.802Z,7.66
2022-10-22T03:56:36.317Z,7.67
2022-10-22T03:59:18.819Z,7.68
2022-10-22T04:02:01.283Z,7.68
2022-10-22T04:04:30.695Z,7.68
2022-10-22T04:06:59.903Z,7.67
2022-10-22T04:09:32.760Z,7.67
2022-10-22T04:12:01.876Z,7.69
2022-10-22T04:14:31.036Z,7.71
2022-10-22T04:17:13.455Z,7.72
2022-10-22T04:19:42.473Z,7.73
2022-10-22T04:22:24.909Z,7.73
2022-10-22T04:25:07.583Z,7.75
2022-10-22T04:27:50.190Z,7.76
2022-10-22T04:30:32.824Z,7.78
2022-10-22T04:33:15.266Z,7.79
2022-10-22T04:35:44.296Z,7.81
2022-10-22T04:38:26.644Z,7.82
2022-10-22T04:41:15.569Z,7.83
2022-10-22T04:43:59.161Z,7.83
2022-10-22T04:46:42.170Z,7.84
2022-10-22T04:49:11.106Z,7.84
2022-10-22T04:51:53.609Z,7.85
2022-10-22T04:54:22.924Z,7.88
2022-10-22T04:56:51.877Z,7.88
2022-10-22T04:59:34.208Z,7.89
2022-10-22T05:02:16.567Z,7.91
2022-10-22T05:04:45.893Z,7.93
2022-10-22T05:07:15.180Z,7.95
2022-10-22T05:09:44.114Z,7.97
2022-10-22T05:12:26.535Z,7.98
2022-10-22T05:15:09.878Z,7.97
2022-10-22T05:17:39.046Z,7.97
2022-10-22T05:20:09.244Z,7.99
2022-10-22T05:22:51.699Z,8.01
2022-10-22T05:25:38.715Z,8.02
2022-10-22T05:28:21.075Z,8.03
2022-10-22T05:30:58.733Z,8.03
2022-10-22T05:33:28.700Z,8.03
2022-10-22T05:35:57.773Z,8.06
2022-10-22T05:38:40.797Z,8.07
2022-10-22T05:41:19.104Z,8.08
2022-10-22T05:43:49.099Z,8.10
2022-10-22T05:46:23.215Z,8.10
2022-10-22T05:49:07.251Z,8.11
2022-10-22T05:51:37.641Z,8.12
2022-10-22T05:54:08.342Z,8.14
2022-10-22T05:56:37.655Z,8.20
2022-10-22T05:59:20.153Z,8.24
2022-10-22T06:02:02.750Z,8.27
2022-10-22T06:04:45.261Z,8.30
2022-10-22T06:07:27.733Z,8.36
2022-10-22T06:09:56.698Z,8.41
2022-10-22T06:12:25.855Z,8.46
2022-10-22T06:15:10.523Z,8.50
2022-10-22T06:17:39.540Z,8.52
2022-10-22T06:20:22.106Z,8.56
2022-10-22T06:22:51.203Z,8.59
2022-10-22T06:25:33.961Z,8.62
2022-10-22T06:28:03.799Z,8.66
2022-10-22T06:30:32.802Z,8.69
2022-10-22T06:33:01.647Z,8.71
2022-10-22T06:35:30.795Z,8.73
2022-10-22T06:38:13.218Z,8.74
2022-10-22T06:40:43.738Z,8.76
2022-10-22T06:43:26.069Z,8.79
2022-10-22T06:46:10.115Z,8.81
2022-10-22T06:48:56.163Z,8.84
2022-10-22T06:51:38.533Z,8.89
2022-10-22T06:54:07.873Z,8.92
2022-10-22T06:56:50.499Z,8.93
2022-10-22T06:59:19.463Z,8.94
2022-10-22T07:02:01.878Z,8.97
2022-10-22T07:04:44.332Z,9.00
2022-10-22T07:07:13.195Z,9.06
2022-10-22T07:09:45.631Z,9.11
2022-10-22T07:12:28.028Z,9.17
2022-10-22T07:14:56.921Z,9.21
2022-10-22T07:20:22.887Z,9.27
2022-10-22T07:23:05.394Z,9.32
2022-10-22T07:25:34.376Z,9.35
2022-10-22T07:28:17.650Z,9.37
2022-10-22T07:30:46.897Z,9.38
2022-10-22T07:33:16.314Z,9.41
2022-10-22T07:35:45.509Z,9.44
2022-10-22T07:38:14.489Z,9.48
2022-10-22T07:40:44.119Z,9.51
2022-10-22T07:43:27.341Z,9.54
2022-10-22T07:45:56.315Z,9.56
2022-10-22T07:48:25.739Z,9.57
2022-10-22T07:50:55.403Z,9.58
2022-10-22T07:53:24.980Z,9.60
2022-10-22T07:56:08.110Z,9.63
2022-10-22T07:58:51.009Z,9.63
2022-10-22T08:01:33.421Z,9.64
2022-10-22T08:04:15.999Z,9.66
2022-10-22T08:06:47.279Z,9.67
2022-10-22T08:09:17.582Z,9.69
2022-10-22T08:12:00.299Z,9.70
2022-10-22T08:14:29.204Z,9.74
2022-10-22T08:16:58.021Z,9.77
2022-10-22T08:19:28.981Z,9.82
2022-10-22T08:21:57.949Z,9.89
2022-10-22T08:24:27.409Z,9.96
2022-10-22T08:26:56.549Z,10.04
2022-10-22T08:29:27.043Z,10.11
2022-10-22T08:32:09.360Z,10.18
2022-10-22T08:34:51.942Z,10.24
2022-10-22T08:37:21.463Z,10.25
2022-10-22T08:39:50.886Z,10.28
2022-10-22T08:42:32.250Z,10.31
2022-10-22T08:45:37.860Z,10.37
2022-10-22T08:48:16.305Z,10.39
2022-10-22T08:50:52.025Z,10.41
2022-10-22T08:53:59.887Z,10.42
2022-10-22T08:56:44.948Z,10.42
2022-10-22T08:59:36.677Z,10.43
2022-10-22T09:02:23.251Z,10.43
2022-10-22T09:05:12.370Z,10.45
2022-10-22T09:07:56.152Z,10.49
2022-10-22T09:10:43.889Z,10.53
2022-10-22T09:13:17.140Z,10.56
2022-10-22T09:15:53.235Z,10.60
2022-10-22T09:18:41.141Z,10.60
2022-10-22T09:21:23.564Z,10.61
2022-10-22T09:24:48.906Z,10.62
2022-10-22T09:27:26.244Z,10.65
2022-10-22T09:30:18.152Z,10.67
2022-10-22T09:32:51.356Z,10.71
2022-10-22T09:35:24.824Z,10.75
2022-10-22T09:38:09.101Z,10.82
2022-10-22T09:40:47.574Z,10.87
2022-10-22T09:43:30.082Z,10.97
2022-10-22T09:46:01.898Z,11.05
2022-10-22T09:48:41.599Z,11.09
2022-10-22T09:51:48.114Z,11.10
2022-10-22T09:54:42.132Z,11.11
2022-10-22T09:57:26.788Z,11.09
2022-10-22T09:59:57.726Z,11.09
2022-10-22T10:02:38.804Z,11.11
2022-10-22T10:05:30.955Z,11.13
2022-10-22T10:08:16.688Z,11.13
2022-10-22T10:11:11.539Z,11.13
2022-10-22T10:13:53.127Z,11.14
2022-10-22T10:16:36.201Z,11.14
2022-10-22T10:20:00.035Z,11.14
2022-10-22T10:23:09.856Z,11.16
2022-10-22T10:25:56.201Z,11.17
2022-10-22T10:29:07.705Z,11.19
2022-10-22T10:31:57.057Z,11.22
2022-10-22T10:34:44.104Z,11.26
2022-10-22T10:37:37.304Z,11.31
2022-10-22T10:40:22.552Z,11.33
2022-10-22T10:43:07.259Z,11.34
2022-10-22T10:45:55.788Z,11.35
2022-10-22T10:49:03.377Z,11.36
2022-10-22T10:51:50.418Z,11.35
2022-10-22T10:54:45.666Z,11.36
2022-10-22T10:57:33.563Z,11.37
2022-10-22T11:00:06.420Z,11.36
2022-10-22T11:03:00.516Z,11.34
2022-10-22T11:05:53.378Z,11.33
2022-10-22T11:08:38.188Z,11.30
2022-10-22T11:11:42.431Z,11.32
2022-10-22T11:14:31.197Z,11.32
2022-10-22T11:17:16.907Z,11.35
2022-10-22T11:20:06.302Z,11.35
2022-10-22T11:23:21.806Z,11.36
2022-10-22T11:25:51.645Z,11.37
2022-10-22T11:28:50.428Z,11.37
2022-10-22T11:31:33.412Z,11.38
2022-10-22T11:34:34.276Z,11.40
2022-10-22T11:37:06.675Z,11.43
2022-10-22T11:40:03.327Z,11.43
2022-10-22T11:42:35.174Z,11.45
2022-10-22T11:45:17.737Z,11.46
2022-10-22T11:48:09.296Z,11.44
2022-10-22T11:50:43.993Z,11.42
2022-10-22T11:53:13.027Z,11.41
2022-10-22T11:55:56.049Z,11.40
2022-10-22T11:58:40.125Z,11.40
2022-10-22T12:01:27.000Z,11.41
2022-10-22T12:04:18.879Z,11.43
2022-10-22T12:07:02.582Z,11.43
2022-10-22T12:09:34.113Z,11.43
2022-10-22T12:12:16.946Z,11.43
2022-10-22T12:15:00.081Z,11.45
2022-10-22T12:17:42.942Z,11.46
2022-10-22T12:20:26.644Z,11.48
2022-10-22T12:22:58.106Z,11.50
2022-10-22T12:25:40.500Z,11.51
2022-10-22T12:28:12.988Z,11.51
2022-10-22T12:30:42.705Z,11.53
2022-10-22T12:33:24.077Z,11.53
2022-10-22T12:35:57.777Z,11.53
2022-10-22T12:38:26.579Z,11.53
2022-10-22T12:41:10.776Z,11.55
2022-10-22T12:43:59.366Z,11.55
2022-10-22T12:46:31.127Z,11.57
2022-10-22T12:49:08.646Z,11.57
2022-10-22T12:51:37.895Z,11.56
2022-10-22T12:54:20.228Z,11.58
2022-10-22T12:56:50.947Z,11.58
2022-10-22T12:59:39.410Z,11.60
2022-10-22T13:02:29.543Z,11.60
2022-10-22T13:05:28.344Z,11.60
2022-10-22T13:08:18.147Z,11.60
2022-10-22T13:11:09.844Z,11.57
2022-10-22T13:14:02.596Z,11.55
2022-10-22T13:16:32.490Z,11.54
2022-10-22T13:19:38.963Z,11.53
2022-10-22T13:22:41.402Z,11.53
2022-10-22T13:25:25.391Z,11.53
2022-10-22T13:28:04.775Z,11.54
2022-10-22T13:30:39.501Z,11.54
2022-10-22T13:33:38.793Z,11.53
2022-10-22T13:36:13.580Z,11.53
2022-10-22T13:38:56.456Z,11.53
2022-10-22T13:44:22.149Z,11.53
2022-10-22T13:46:51.552Z,11.53
2022-10-22T13:49:33.986Z,11.55
2022-10-22T13:52:03.867Z,11.56
2022-10-22T13:54:32.770Z,11.56
2022-10-22T13:57:15.065Z,11.56
2022-10-22T13:59:57.357Z,11.57
2022-10-22T14:02:41.249Z,11.58
2022-10-22T14:05:24.044Z,11.60
2022-10-22T14:08:14.707Z,11.60
2022-10-22T14:10:57.073Z,11.59
2022-10-22T14:13:39.979Z,11.59
2022-10-22T14:16:26.023Z,11.56
2022-10-22T14:18:56.261Z,11.55
2022-10-22T14:21:25.165Z,11.54
2022-10-22T14:23:55.145Z,11.54
2022-10-22T14:26:37.540Z,11.55
2022-10-22T14:29:19.981Z,11.55
2022-10-22T14:32:02.378Z,11.56
2022-10-22T14:34:47.071Z,11.56
2022-10-22T14:37:29.373Z,11.56
2022-10-22T14:40:15.236Z,11.58
2022-10-22T14:42:57.547Z,11.60
2022-10-22T14:45:40.158Z,11.61
2022-10-22T14:48:08.805Z,11.62
2022-10-22T14:50:37.455Z,11.63
2022-10-22T14:53:06.248Z,11.63
2022-10-22T14:55:35.656Z,11.61
2022-10-22T14:58:04.984Z,11.62
2022-10-22T15:00:36.978Z,11.61
2022-10-22T15:03:05.802Z,11.61
2022-10-22T15:05:54.015Z,11.62
2022-10-22T15:08:22.866Z,11.63
2022-10-22T15:11:11.455Z,11.63
2022-10-22T15:13:53.776Z,11.63
2022-10-22T15:16:36.103Z,11.63
2022-10-22T15:19:18.427Z,11.62
2022-10-22T15:21:47.303Z,11.64
2022-10-22T15:24:16.757Z,11.63
2022-10-22T15:26:45.393Z,11.64
2022-10-22T15:29:27.860Z,11.64
2022-10-22T15:31:58.432Z,11.65
2022-10-22T15:34:41.508Z,11.66
2022-10-22T15:37:13.771Z,11.67
2022-10-22T15:39:43.092Z,11.68
2022-10-22T15:42:25.594Z,11.68
2022-10-22T15:45:09.207Z,11.69
2022-10-22T15:47:38.347Z,11.69
2022-10-22T15:50:08.194Z,11.69
2022-10-22T15:52:50.955Z,11.70
2022-10-22T15:55:20.310Z,11.71
2022-10-22T15:57:54.932Z,11.71
2022-10-22T16:00:37.306Z,11.72
2022-10-22T16:03:06.668Z,11.72
2022-10-22T16:05:35.388Z,11.72
2022-10-22T16:08:17.725Z,11.72
2022-10-22T16:10:48.768Z,11.72
2022-10-22T16:13:31.930Z,11.72
2022-10-22T16:16:06.795Z,11.72
2022-10-22T16:18:36.100Z,11.73
2022-10-22T16:21:20.008Z,11.74
2022-10-22T16:24:06.140Z,11.74
2022-10-22T16:26:36.549Z,11.74
2022-10-22T16:29:08.541Z,11.76
2022-10-22T16:31:37.473Z,11.75
2022-10-22T16:34:07.388Z,11.75
2022-10-22T16:36:49.922Z,11.74
2022-10-22T16:39:19.641Z,11.73
2022-10-22T16:41:48.653Z,11.71
2022-10-22T16:44:17.743Z,11.71
2022-10-22T16:46:47.216Z,11.71
2022-10-22T16:49:29.946Z,11.71
2022-10-22T16:52:12.394Z,11.70
2022-10-22T16:54:41.293Z,11.70
2022-10-22T16:57:23.805Z,11.69
2022-10-22T16:59:52.629Z,11.68
2022-10-22T17:02:21.513Z,11.68
2022-10-22T17:04:50.295Z,11.69
2022-10-22T17:07:19.283Z,11.70
2022-10-22T17:09:48.501Z,11.70
2022-10-22T17:12:17.505Z,11.69
2022-10-22T17:14:59.807Z,11.69
2022-10-22T17:17:29.150Z,11.69
2022-10-22T17:19:58.588Z,11.68
2022-10-22T17:22:41.447Z,11.68
2022-10-22T17:25:15.992Z,11.68
2022-10-22T17:27:46.008Z,11.66
2022-10-22T17:30:23.433Z,11.66
2022-10-22T17:33:09.842Z,11.65
2022-10-22T17:35:52.876Z,11.64
2022-10-22T17:38:35.697Z,11.63
2022-10-22T17:41:21.454Z,11.63
2022-10-22T17:44:09.472Z,11.61
2022-10-22T17:46:39.160Z,11.60
2022-10-22T17:49:21.382Z,11.60
2022-10-22T17:52:03.992Z,11.61
2022-10-22T17:54:49.437Z,11.61
2022-10-22T17:57:18.865Z,11.61
2022-10-22T17:59:47.605Z,11.64
2022-10-22T18:02:30.663Z,11.65
2022-10-22T18:04:59.696Z,11.66
2022-10-22T18:07:28.833Z,11.68
2022-10-22T18:09:57.944Z,11.71
2022-10-22T18:12:26.990Z,11.72
2022-10-22T18:15:09.878Z,11.72
2022-10-22T18:17:39.764Z,11.71
2022-10-22T18:20:09.958Z,11.70
2022-10-22T18:22:55.627Z,11.71
2022-10-22T18:25:24.758Z,11.72
2022-10-22T18:27:53.669Z,11.74
2022-10-22T18:30:41.218Z,11.76
2022-10-22T18:33:13.601Z,11.75
2022-10-22T18:35:57.235Z,11.75
2022-10-22T18:38:26.316Z,11.75
2022-10-22T18:41:13.705Z,11.76
2022-10-22T18:43:42.705Z,11.78
2022-10-22T18:46:12.151Z,11.79
2022-10-22T18:48:59.565Z,11.80
2022-10-22T18:51:34.802Z,11.81
2022-10-22T18:54:24.901Z,11.83
2022-10-22T18:57:00.475Z,11.85
2022-10-22T18:59:31.390Z,11.87
2022-10-22T19:02:00.783Z,11.88
2022-10-22T19:04:37.107Z,11.89
2022-10-22T19:09:37.010Z,11.87
2022-10-22T19:12:06.506Z,11.85
2022-10-22T19:14:36.615Z,11.84
2022-10-22T19:17:05.618Z,11.85
2022-10-22T19:19:35.136Z,11.84
2022-10-22T19:22:05.040Z,11.83
2022-10-22T19:24:34.804Z,11.82
2022-10-22T19:27:04.112Z,11.81
2022-10-22T19:29:33.235Z,11.78
2022-10-22T19:32:17.852Z,11.78
2022-10-22T19:34:47.666Z,11.77
2022-10-22T19:37:30.254Z,11.78
2022-10-22T19:39:59.182Z,11.79
2022-10-22T19:42:28.795Z,11.80
2022-10-22T19:44:58.554Z,11.78
2022-10-22T19:47:28.270Z,11.78
2022-10-22T19:49:57.340Z,11.78
2022-10-22T19:52:40.136Z,11.79
2022-10-22T19:55:22.919Z,11.80
2022-10-22T19:58:05.573Z,11.81
2022-10-22T20:00:35.931Z,11.82
2022-10-22T20:03:20.308Z,11.83
2022-10-22T20:05:51.535Z,11.83
2022-10-22T20:08:20.539Z,11.84
2022-10-22T20:10:50.261Z,11.82
2022-10-22T20:13:33.550Z,11.82
2022-10-22T20:16:18.188Z,11.82
2022-10-22T20:18:47.037Z,11.83
2022-10-22T20:21:19.773Z,11.84
2022-10-22T20:24:02.305Z,11.86
2022-10-22T20:26:46.519Z,11.86
2022-10-22T20:29:19.187Z,11.86
2022-10-22T20:31:48.612Z,11.87
2022-10-22T20:34:17.411Z,11.88
2022-10-22T20:36:47.834Z,11.88
2022-10-22T20:39:30.185Z,11.89
2022-10-22T20:42:12.963Z,11.90
2022-10-22T20:44:41.774Z,11.89
2022-10-22T20:47:30.448Z,11.89
2022-10-22T20:50:11.372Z,11.89
2022-10-22T20:52:40.449Z,11.89
2022-10-22T20:55:22.882Z,11.89
2022-10-22T20:58:05.439Z,11.89
2022-10-22T21:00:48.876Z,11.88
2022-10-22T21:03:17.932Z,11.88
2022-10-22T21:06:00.748Z,11.89
2022-10-22T21:08:29.884Z,11.89
2022-10-22T21:11:12.457Z,11.89
2022-10-22T21:13:41.705Z,11.89
2022-10-22T21:16:13.131Z,11.88
2022-10-22T21:18:55.756Z,11.88
2022-10-22T21:21:38.158Z,11.87
2022-10-22T21:24:07.598Z,11.87
2022-10-22T21:26:41.279Z,11.87
2022-10-22T21:29:12.753Z,11.87
2022-10-22T21:31:55.374Z,11.87
2022-10-22T21:34:26.337Z,11.88
2022-10-22T21:36:55.398Z,11.89
2022-10-22T21:39:41.246Z,11.91
2022-10-22T21:42:24.801Z,11.93
2022-10-22T21:44:53.943Z,11.94
2022-10-22T21:47:36.466Z,11.94
2022-10-22T21:50:19.535Z,11.95
2022-10-22T21:55:45.407Z,11.94
2022-10-22T21:58:27.900Z,11.94
2022-10-22T22:00:58.969Z,11.94
2022-10-22T22:03:43.809Z,11.92
2022-10-22T22:06:13.468Z,11.91
2022-10-22T22:08:56.502Z,11.92
2022-10-22T22:11:39.156Z,11.92
2022-10-22T22:14:21.632Z,11.89
2022-10-22T22:16:50.749Z,11.89
2022-10-22T22:19:33.433Z,11.89
2022-10-22T22:22:16.046Z,11.88
2022-10-22T22:24:58.401Z,11.86
2022-10-22T22:27:41.147Z,11.86
2022-10-22T22:30:23.965Z,11.86
2022-10-22T22:33:06.797Z,11.85
2022-10-22T22:38:07.271Z,11.85
2022-10-22T22:40:49.853Z,11.86
2022-10-22T22:43:19.233Z,11.86
2022-10-22T22:46:06.347Z,11.87
2022-10-22T22:48:50.009Z,11.87
2022-10-22T22:51:32.837Z,11.88
2022-10-22T22:54:15.424Z,11.89
2022-10-22T22:56:44.671Z,11.92
2022-10-22T22:59:27.281Z,11.95
2022-10-22T23:02:10.514Z,11.98
2022-10-22T23:04:53.033Z,11.98
2022-10-22T23:07:35.434Z,11.99
2022-10-22T23:10:18.019Z,11.95
2022-10-22T23:13:00.613Z,11.94
2022-10-22T23:15:43.042Z,11.92
2022-10-22T23:18:26.396Z,11.91
2022-10-22T23:20:55.328Z,11.90
2022-10-22T23:23:24.427Z,11.91
2022-10-22T23:26:06.956Z,11.91
2022-10-22T23:28:50.312Z,11.91
2022-10-22T23:31:21.876Z,11.93
2022-10-22T23:34:07.239Z,11.94
2022-10-22T23:36:51.130Z,11.96
2022-10-22T23:39:22.873Z,11.96
2022-10-22T23:41:53.889Z,11.97
2022-10-22T23:44:23.353Z,11.98
2022-10-22T23:46:52.391Z,11.99
2022-10-22T23:49:34.859Z,12.00
2022-10-22T23:52:17.257Z,12.00
2022-10-22T23:54:59.677Z,12.00
2022-10-22T23:57:28.745Z,12.00
2022-10-22T23:59:57.853Z,12.01
